sensor_id;sensor_type;location;lat;lon;timestamp;P1;durP1;ratioP1;P2;durP2;ratioP2
17983;SDS011;9117;52.420;20.728;2023-01-09T00:01:27;66.63;;;26.47;;
17983;SDS011;9117;52.420;20.728;2023-01-09T00:03:59;62.97;;;26.47;;
17983;SDS011;9117;52.420;20.728;2023-01-09T00:06:28;69.80;;;26.90;;
17983;SDS011;9117;52.420;20.728;2023-01-09T00:08:56;72.80;;;26.97;;
17983;SDS011;9117;52.420;20.728;2023-01-09T00:11:24;64.03;;;23.60;;
17983;SDS011;9117;52.420;20.728;2023-01-09T00:13:53;66.33;;;24.40;;
17983;SDS011;9117;52.420;20.728;2023-01-09T00:16:21;64.40;;;25.80;;
17983;SDS011;9117;52.420;20.728;2023-01-09T00:18:49;64.93;;;24.77;;
17983;SDS011;9117;52.420;20.728;2023-01-09T00:21:20;68.37;;;27.53;;
17983;SDS011;9117;52.420;20.728;2023-01-09T00:23:48;70.73;;;27.37;;
17983;SDS011;9117;52.420;20.728;2023-01-09T00:26:16;73.53;;;26.57;;
17983;SDS011;9117;52.420;20.728;2023-01-09T00:28:46;70.43;;;26.40;;
17983;SDS011;9117;52.420;20.728;2023-01-09T00:31:15;67.17;;;26.33;;
17983;SDS011;9117;52.420;20.728;2023-01-09T00:33:45;70.27;;;27.20;;
17983;SDS011;9117;52.420;20.728;2023-01-09T00:36:20;57.43;;;23.97;;
17983;SDS011;9117;52.420;20.728;2023-01-09T00:38:48;66.43;;;25.93;;
17983;SDS011;9117;52.420;20.728;2023-01-09T00:41:18;59.70;;;22.17;;
17983;SDS011;9117;52.420;20.728;2023-01-09T00:43:49;66.83;;;25.87;;
17983;SDS011;9117;52.420;20.728;2023-01-09T00:46:19;60.70;;;25.03;;
17983;SDS011;9117;52.420;20.728;2023-01-09T00:48:51;60.83;;;25.03;;
17983;SDS011;9117;52.420;20.728;2023-01-09T00:51:21;65.50;;;24.13;;
17983;SDS011;9117;52.420;20.728;2023-01-09T00:53:50;66.73;;;26.10;;
17983;SDS011;9117;52.420;20.728;2023-01-09T00:56:19;65.67;;;25.20;;
17983;SDS011;9117;52.420;20.728;2023-01-09T00:58:49;62.37;;;23.43;;
17983;SDS011;9117;52.420;20.728;2023-01-09T01:01:18;73.67;;;26.40;;
17983;SDS011;9117;52.420;20.728;2023-01-09T01:03:46;78.90;;;27.13;;
17983;SDS011;9117;52.420;20.728;2023-01-09T01:06:15;75.80;;;28.23;;
17983;SDS011;9117;52.420;20.728;2023-01-09T01:09:02;71.07;;;26.13;;
17983;SDS011;9117;52.420;20.728;2023-01-09T01:11:31;70.20;;;24.90;;
17983;SDS011;9117;52.420;20.728;2023-01-09T01:13:59;66.40;;;25.87;;
17983;SDS011;9117;52.420;20.728;2023-01-09T01:16:27;65.23;;;26.90;;
17983;SDS011;9117;52.420;20.728;2023-01-09T01:18:56;75.57;;;28.03;;
17983;SDS011;9117;52.420;20.728;2023-01-09T01:21:24;65.43;;;26.00;;
17983;SDS011;9117;52.420;20.728;2023-01-09T01:23:52;65.60;;;26.87;;
17983;SDS011;9117;52.420;20.728;2023-01-09T01:26:21;68.23;;;26.43;;
17983;SDS011;9117;52.420;20.728;2023-01-09T01:28:50;69.73;;;26.87;;
17983;SDS011;9117;52.420;20.728;2023-01-09T01:31:18;66.43;;;24.97;;
17983;SDS011;9117;52.420;20.728;2023-01-09T01:33:46;66.83;;;24.33;;
17983;SDS011;9117;52.420;20.728;2023-01-09T01:36:14;67.17;;;25.70;;
17983;SDS011;9117;52.420;20.728;2023-01-09T01:38:43;72.43;;;26.60;;
17983;SDS011;9117;52.420;20.728;2023-01-09T01:41:13;73.90;;;28.00;;
17983;SDS011;9117;52.420;20.728;2023-01-09T01:43:57;65.13;;;26.47;;
17983;SDS011;9117;52.420;20.728;2023-01-09T01:46:27;70.40;;;27.03;;
17983;SDS011;9117;52.420;20.728;2023-01-09T01:48:59;69.67;;;26.60;;
17983;SDS011;9117;52.420;20.728;2023-01-09T01:51:31;70.07;;;26.30;;
17983;SDS011;9117;52.420;20.728;2023-01-09T01:54:05;59.30;;;25.47;;
17983;SDS011;9117;52.420;20.728;2023-01-09T01:56:39;60.13;;;24.77;;
17983;SDS011;9117;52.420;20.728;2023-01-09T01:59:14;65.10;;;24.77;;
17983;SDS011;9117;52.420;20.728;2023-01-09T02:01:46;68.43;;;25.23;;
17983;SDS011;9117;52.420;20.728;2023-01-09T02:04:17;60.10;;;24.20;;
17983;SDS011;9117;52.420;20.728;2023-01-09T02:06:46;62.67;;;24.20;;
17983;SDS011;9117;52.420;20.728;2023-01-09T02:09:17;67.57;;;26.00;;
17983;SDS011;9117;52.420;20.728;2023-01-09T02:11:49;71.60;;;26.57;;
17983;SDS011;9117;52.420;20.728;2023-01-09T02:14:20;67.03;;;26.33;;
17983;SDS011;9117;52.420;20.728;2023-01-09T02:16:53;62.03;;;24.40;;
17983;SDS011;9117;52.420;20.728;2023-01-09T02:19:44;53.17;;;22.17;;
17983;SDS011;9117;52.420;20.728;2023-01-09T02:22:36;57.57;;;23.17;;
17983;SDS011;9117;52.420;20.728;2023-01-09T02:28:29;62.87;;;24.97;;
17983;SDS011;9117;52.420;20.728;2023-01-09T02:31:19;64.60;;;26.23;;
17983;SDS011;9117;52.420;20.728;2023-01-09T02:33:56;64.40;;;25.13;;
17983;SDS011;9117;52.420;20.728;2023-01-09T02:36:29;69.23;;;25.53;;
17983;SDS011;9117;52.420;20.728;2023-01-09T02:39:12;64.23;;;24.70;;
17983;SDS011;9117;52.420;20.728;2023-01-09T02:41:50;61.53;;;24.57;;
17983;SDS011;9117;52.420;20.728;2023-01-09T02:44:25;59.27;;;24.67;;
17983;SDS011;9117;52.420;20.728;2023-01-09T02:47:00;64.10;;;25.93;;
17983;SDS011;9117;52.420;20.728;2023-01-09T02:49:30;71.73;;;26.90;;
17983;SDS011;9117;52.420;20.728;2023-01-09T02:52:08;62.97;;;25.53;;
17983;SDS011;9117;52.420;20.728;2023-01-09T02:54:53;69.07;;;25.67;;
17983;SDS011;9117;52.420;20.728;2023-01-09T02:57:35;60.53;;;24.07;;
17983;SDS011;9117;52.420;20.728;2023-01-09T03:00:17;64.30;;;24.20;;
17983;SDS011;9117;52.420;20.728;2023-01-09T03:02:59;62.90;;;26.27;;
17983;SDS011;9117;52.420;20.728;2023-01-09T03:05:36;64.40;;;24.87;;
17983;SDS011;9117;52.420;20.728;2023-01-09T03:08:10;64.10;;;25.40;;
17983;SDS011;9117;52.420;20.728;2023-01-09T03:10:44;64.33;;;23.67;;
17983;SDS011;9117;52.420;20.728;2023-01-09T03:13:17;57.53;;;24.90;;
17983;SDS011;9117;52.420;20.728;2023-01-09T03:15:47;61.83;;;23.90;;
17983;SDS011;9117;52.420;20.728;2023-01-09T03:18:20;61.73;;;25.03;;
17983;SDS011;9117;52.420;20.728;2023-01-09T03:20:51;61.50;;;26.20;;
17983;SDS011;9117;52.420;20.728;2023-01-09T03:23:20;60.80;;;25.90;;
17983;SDS011;9117;52.420;20.728;2023-01-09T03:25:48;61.47;;;25.27;;
17983;SDS011;9117;52.420;20.728;2023-01-09T03:28:20;61.53;;;25.47;;
17983;SDS011;9117;52.420;20.728;2023-01-09T03:30:52;62.57;;;24.33;;
17983;SDS011;9117;52.420;20.728;2023-01-09T03:33:22;62.63;;;24.60;;
17983;SDS011;9117;52.420;20.728;2023-01-09T03:35:50;61.27;;;24.33;;
17983;SDS011;9117;52.420;20.728;2023-01-09T03:38:18;69.63;;;25.63;;
17983;SDS011;9117;52.420;20.728;2023-01-09T03:40:46;57.37;;;23.87;;
17983;SDS011;9117;52.420;20.728;2023-01-09T03:43:15;63.03;;;25.63;;
17983;SDS011;9117;52.420;20.728;2023-01-09T03:45:43;60.57;;;24.83;;
17983;SDS011;9117;52.420;20.728;2023-01-09T03:48:11;58.53;;;24.27;;
17983;SDS011;9117;52.420;20.728;2023-01-09T03:50:41;60.10;;;24.47;;
17983;SDS011;9117;52.420;20.728;2023-01-09T03:53:11;62.93;;;25.90;;
17983;SDS011;9117;52.420;20.728;2023-01-09T03:55:39;63.10;;;25.00;;
17983;SDS011;9117;52.420;20.728;2023-01-09T03:58:10;61.83;;;24.83;;
17983;SDS011;9117;52.420;20.728;2023-01-09T04:00:39;56.20;;;23.70;;
17983;SDS011;9117;52.420;20.728;2023-01-09T04:03:07;63.57;;;26.93;;
17983;SDS011;9117;52.420;20.728;2023-01-09T04:05:36;67.07;;;25.40;;
17983;SDS011;9117;52.420;20.728;2023-01-09T04:08:06;56.50;;;24.27;;
17983;SDS011;9117;52.420;20.728;2023-01-09T04:10:34;63.07;;;25.87;;
17983;SDS011;9117;52.420;20.728;2023-01-09T04:13:02;59.13;;;25.60;;
17983;SDS011;9117;52.420;20.728;2023-01-09T04:15:30;64.43;;;24.63;;
17983;SDS011;9117;52.420;20.728;2023-01-09T04:17:58;55.53;;;24.87;;
17983;SDS011;9117;52.420;20.728;2023-01-09T04:20:27;55.53;;;24.07;;
17983;SDS011;9117;52.420;20.728;2023-01-09T04:22:56;63.70;;;26.27;;
17983;SDS011;9117;52.420;20.728;2023-01-09T04:25:26;56.27;;;25.30;;
17983;SDS011;9117;52.420;20.728;2023-01-09T04:27:54;54.10;;;25.57;;
17983;SDS011;9117;52.420;20.728;2023-01-09T04:30:22;59.40;;;26.07;;
17983;SDS011;9117;52.420;20.728;2023-01-09T04:32:51;60.17;;;25.90;;
17983;SDS011;9117;52.420;20.728;2023-01-09T04:35:19;59.73;;;25.60;;
17983;SDS011;9117;52.420;20.728;2023-01-09T04:37:47;59.37;;;24.70;;
17983;SDS011;9117;52.420;20.728;2023-01-09T04:40:16;54.93;;;24.90;;
17983;SDS011;9117;52.420;20.728;2023-01-09T04:42:46;54.40;;;24.63;;
17983;SDS011;9117;52.420;20.728;2023-01-09T04:45:14;52.00;;;23.67;;
17983;SDS011;9117;52.420;20.728;2023-01-09T04:47:43;58.40;;;23.83;;
17983;SDS011;9117;52.420;20.728;2023-01-09T04:50:11;55.97;;;24.60;;
17983;SDS011;9117;52.420;20.728;2023-01-09T04:52:39;51.23;;;24.27;;
17983;SDS011;9117;52.420;20.728;2023-01-09T04:55:07;59.77;;;24.90;;
17983;SDS011;9117;52.420;20.728;2023-01-09T04:57:39;60.03;;;24.33;;
17983;SDS011;9117;52.420;20.728;2023-01-09T05:00:09;48.53;;;23.60;;
17983;SDS011;9117;52.420;20.728;2023-01-09T05:02:37;53.17;;;23.40;;
17983;SDS011;9117;52.420;20.728;2023-01-09T05:05:07;50.87;;;23.33;;
17983;SDS011;9117;52.420;20.728;2023-01-09T05:07:37;55.67;;;23.80;;
17983;SDS011;9117;52.420;20.728;2023-01-09T05:10:06;53.13;;;24.00;;
17983;SDS011;9117;52.420;20.728;2023-01-09T05:12:35;49.73;;;21.93;;
17983;SDS011;9117;52.420;20.728;2023-01-09T05:15:05;52.03;;;24.33;;
17983;SDS011;9117;52.420;20.728;2023-01-09T05:17:36;46.90;;;22.83;;
17983;SDS011;9117;52.420;20.728;2023-01-09T05:20:04;50.70;;;23.53;;
17983;SDS011;9117;52.420;20.728;2023-01-09T05:22:33;54.73;;;23.40;;
17983;SDS011;9117;52.420;20.728;2023-01-09T05:25:01;55.00;;;23.63;;
17983;SDS011;9117;52.420;20.728;2023-01-09T05:27:29;56.10;;;23.70;;
17983;SDS011;9117;52.420;20.728;2023-01-09T05:29:57;52.27;;;24.07;;
17983;SDS011;9117;52.420;20.728;2023-01-09T05:32:26;55.17;;;24.63;;
17983;SDS011;9117;52.420;20.728;2023-01-09T05:34:55;50.70;;;23.97;;
17983;SDS011;9117;52.420;20.728;2023-01-09T05:37:23;53.13;;;23.50;;
17983;SDS011;9117;52.420;20.728;2023-01-09T05:39:51;53.77;;;23.80;;
17983;SDS011;9117;52.420;20.728;2023-01-09T05:42:20;56.07;;;24.47;;
17983;SDS011;9117;52.420;20.728;2023-01-09T05:44:48;49.13;;;23.53;;
17983;SDS011;9117;52.420;20.728;2023-01-09T05:47:16;49.67;;;23.33;;
17983;SDS011;9117;52.420;20.728;2023-01-09T05:49:44;53.30;;;23.47;;
17983;SDS011;9117;52.420;20.728;2023-01-09T05:52:14;54.87;;;24.67;;
17983;SDS011;9117;52.420;20.728;2023-01-09T05:54:42;56.23;;;24.53;;
17983;SDS011;9117;52.420;20.728;2023-01-09T05:57:10;50.47;;;24.63;;
17983;SDS011;9117;52.420;20.728;2023-01-09T05:59:38;50.60;;;23.20;;
17983;SDS011;9117;52.420;20.728;2023-01-09T06:02:06;48.20;;;23.60;;
17983;SDS011;9117;52.420;20.728;2023-01-09T06:04:35;55.97;;;24.47;;
17983;SDS011;9117;52.420;20.728;2023-01-09T06:07:03;52.17;;;23.00;;
17983;SDS011;9117;52.420;20.728;2023-01-09T06:09:32;47.47;;;22.70;;
17983;SDS011;9117;52.420;20.728;2023-01-09T06:12:01;49.47;;;23.17;;
17983;SDS011;9117;52.420;20.728;2023-01-09T06:14:29;51.13;;;23.70;;
17983;SDS011;9117;52.420;20.728;2023-01-09T06:16:57;52.63;;;23.30;;
17983;SDS011;9117;52.420;20.728;2023-01-09T06:19:25;49.93;;;23.20;;
17983;SDS011;9117;52.420;20.728;2023-01-09T06:21:53;51.93;;;23.33;;
17983;SDS011;9117;52.420;20.728;2023-01-09T06:24:22;47.73;;;23.47;;
17983;SDS011;9117;52.420;20.728;2023-01-09T06:26:51;46.77;;;22.03;;
17983;SDS011;9117;52.420;20.728;2023-01-09T06:29:19;51.73;;;23.87;;
17983;SDS011;9117;52.420;20.728;2023-01-09T06:31:47;48.37;;;21.93;;
17983;SDS011;9117;52.420;20.728;2023-01-09T06:34:16;48.67;;;22.87;;
17983;SDS011;9117;52.420;20.728;2023-01-09T06:36:44;48.93;;;22.60;;
17983;SDS011;9117;52.420;20.728;2023-01-09T06:39:12;48.60;;;22.73;;
17983;SDS011;9117;52.420;20.728;2023-01-09T06:41:40;51.07;;;23.47;;
17983;SDS011;9117;52.420;20.728;2023-01-09T06:44:15;53.20;;;24.67;;
17983;SDS011;9117;52.420;20.728;2023-01-09T06:46:43;52.57;;;23.80;;
17983;SDS011;9117;52.420;20.728;2023-01-09T06:49:11;50.10;;;23.67;;
17983;SDS011;9117;52.420;20.728;2023-01-09T06:51:39;50.63;;;23.50;;
17983;SDS011;9117;52.420;20.728;2023-01-09T06:54:07;47.50;;;22.03;;
17983;SDS011;9117;52.420;20.728;2023-01-09T06:56:35;50.10;;;23.77;;
17983;SDS011;9117;52.420;20.728;2023-01-09T06:59:04;42.77;;;21.00;;
17983;SDS011;9117;52.420;20.728;2023-01-09T07:01:33;51.00;;;22.67;;
17983;SDS011;9117;52.420;20.728;2023-01-09T07:04:01;51.80;;;23.23;;
17983;SDS011;9117;52.420;20.728;2023-01-09T07:06:31;49.70;;;22.40;;
17983;SDS011;9117;52.420;20.728;2023-01-09T07:08:59;46.60;;;21.63;;
17983;SDS011;9117;52.420;20.728;2023-01-09T07:11:28;49.10;;;23.30;;
17983;SDS011;9117;52.420;20.728;2023-01-09T07:13:56;44.30;;;21.87;;
17983;SDS011;9117;52.420;20.728;2023-01-09T07:16:24;46.50;;;21.87;;
17983;SDS011;9117;52.420;20.728;2023-01-09T07:18:54;45.20;;;21.03;;
17983;SDS011;9117;52.420;20.728;2023-01-09T07:21:22;47.27;;;22.50;;
17983;SDS011;9117;52.420;20.728;2023-01-09T07:23:50;46.40;;;21.90;;
17983;SDS011;9117;52.420;20.728;2023-01-09T07:26:18;46.33;;;22.37;;
17983;SDS011;9117;52.420;20.728;2023-01-09T07:28:46;44.07;;;22.17;;
17983;SDS011;9117;52.420;20.728;2023-01-09T07:31:14;48.03;;;22.70;;
17983;SDS011;9117;52.420;20.728;2023-01-09T07:33:43;50.87;;;23.20;;
17983;SDS011;9117;52.420;20.728;2023-01-09T07:36:12;48.47;;;22.03;;
17983;SDS011;9117;52.420;20.728;2023-01-09T07:38:41;53.20;;;23.60;;
17983;SDS011;9117;52.420;20.728;2023-01-09T07:41:09;47.63;;;22.60;;
17983;SDS011;9117;52.420;20.728;2023-01-09T07:43:37;49.37;;;23.00;;
17983;SDS011;9117;52.420;20.728;2023-01-09T07:46:06;50.10;;;22.50;;
17983;SDS011;9117;52.420;20.728;2023-01-09T07:48:34;51.57;;;24.03;;
17983;SDS011;9117;52.420;20.728;2023-01-09T07:51:02;49.10;;;21.50;;
17983;SDS011;9117;52.420;20.728;2023-01-09T07:53:32;51.17;;;22.33;;
17983;SDS011;9117;52.420;20.728;2023-01-09T07:56:01;43.87;;;19.80;;
17983;SDS011;9117;52.420;20.728;2023-01-09T07:58:29;47.27;;;22.00;;
17983;SDS011;9117;52.420;20.728;2023-01-09T08:00:57;43.33;;;20.83;;
17983;SDS011;9117;52.420;20.728;2023-01-09T08:03:25;49.90;;;21.97;;
17983;SDS011;9117;52.420;20.728;2023-01-09T08:05:53;44.80;;;20.87;;
17983;SDS011;9117;52.420;20.728;2023-01-09T08:08:22;51.07;;;21.73;;
17983;SDS011;9117;52.420;20.728;2023-01-09T08:10:51;46.57;;;22.30;;
17983;SDS011;9117;52.420;20.728;2023-01-09T08:13:20;43.70;;;21.33;;
17983;SDS011;9117;52.420;20.728;2023-01-09T08:15:48;44.17;;;20.93;;
17983;SDS011;9117;52.420;20.728;2023-01-09T08:18:16;46.07;;;21.47;;
17983;SDS011;9117;52.420;20.728;2023-01-09T08:20:46;48.63;;;21.23;;
17983;SDS011;9117;52.420;20.728;2023-01-09T08:23:14;44.00;;;20.73;;
17983;SDS011;9117;52.420;20.728;2023-01-09T08:25:43;47.27;;;21.33;;
17983;SDS011;9117;52.420;20.728;2023-01-09T08:28:12;44.13;;;21.20;;
17983;SDS011;9117;52.420;20.728;2023-01-09T08:30:40;50.77;;;22.13;;
17983;SDS011;9117;52.420;20.728;2023-01-09T08:33:08;42.77;;;20.50;;
17983;SDS011;9117;52.420;20.728;2023-01-09T08:35:37;41.50;;;19.60;;
17983;SDS011;9117;52.420;20.728;2023-01-09T08:38:05;42.30;;;20.17;;
17983;SDS011;9117;52.420;20.728;2023-01-09T08:40:33;44.57;;;19.97;;
17983;SDS011;9117;52.420;20.728;2023-01-09T08:43:01;47.53;;;21.70;;
17983;SDS011;9117;52.420;20.728;2023-01-09T08:45:48;45.17;;;20.20;;
17983;SDS011;9117;52.420;20.728;2023-01-09T08:48:42;40.07;;;18.37;;
17983;SDS011;9117;52.420;20.728;2023-01-09T08:51:11;42.53;;;20.87;;
17983;SDS011;9117;52.420;20.728;2023-01-09T08:53:39;39.70;;;19.77;;
17983;SDS011;9117;52.420;20.728;2023-01-09T08:56:07;40.57;;;20.13;;
17983;SDS011;9117;52.420;20.728;2023-01-09T08:58:36;45.50;;;20.27;;
17983;SDS011;9117;52.420;20.728;2023-01-09T09:01:06;39.73;;;20.83;;
17983;SDS011;9117;52.420;20.728;2023-01-09T09:03:34;43.90;;;20.77;;
17983;SDS011;9117;52.420;20.728;2023-01-09T09:06:02;40.33;;;19.70;;
17983;SDS011;9117;52.420;20.728;2023-01-09T09:08:34;43.53;;;18.80;;
17983;SDS011;9117;52.420;20.728;2023-01-09T09:11:02;42.80;;;19.83;;
17983;SDS011;9117;52.420;20.728;2023-01-09T09:13:31;45.30;;;19.83;;
17983;SDS011;9117;52.420;20.728;2023-01-09T09:16:00;39.40;;;19.90;;
17983;SDS011;9117;52.420;20.728;2023-01-09T09:18:30;44.33;;;20.23;;
17983;SDS011;9117;52.420;20.728;2023-01-09T09:20:58;43.37;;;20.33;;
17983;SDS011;9117;52.420;20.728;2023-01-09T09:23:26;41.53;;;19.50;;
17983;SDS011;9117;52.420;20.728;2023-01-09T09:25:56;39.87;;;19.03;;
17983;SDS011;9117;52.420;20.728;2023-01-09T09:28:24;40.57;;;20.03;;
17983;SDS011;9117;52.420;20.728;2023-01-09T09:30:52;41.60;;;19.57;;
17983;SDS011;9117;52.420;20.728;2023-01-09T09:33:21;39.33;;;19.37;;
17983;SDS011;9117;52.420;20.728;2023-01-09T09:35:50;41.43;;;20.17;;
17983;SDS011;9117;52.420;20.728;2023-01-09T09:38:18;39.43;;;19.90;;
17983;SDS011;9117;52.420;20.728;2023-01-09T09:40:54;38.37;;;19.57;;
17983;SDS011;9117;52.420;20.728;2023-01-09T09:43:59;39.70;;;18.77;;
17983;SDS011;9117;52.420;20.728;2023-01-09T09:46:57;39.10;;;19.83;;
17983;SDS011;9117;52.420;20.728;2023-01-09T09:49:32;42.50;;;19.37;;
17983;SDS011;9117;52.420;20.728;2023-01-09T09:52:12;43.07;;;19.70;;
17983;SDS011;9117;52.420;20.728;2023-01-09T09:54:50;40.63;;;19.87;;
17983;SDS011;9117;52.420;20.728;2023-01-09T09:57:20;41.10;;;19.73;;
17983;SDS011;9117;52.420;20.728;2023-01-09T09:59:57;43.13;;;20.80;;
17983;SDS011;9117;52.420;20.728;2023-01-09T10:02:26;44.30;;;18.43;;
17983;SDS011;9117;52.420;20.728;2023-01-09T10:04:59;42.40;;;19.37;;
17983;SDS011;9117;52.420;20.728;2023-01-09T10:07:34;35.67;;;18.70;;
17983;SDS011;9117;52.420;20.728;2023-01-09T10:10:09;40.73;;;19.07;;
17983;SDS011;9117;52.420;20.728;2023-01-09T10:12:44;37.63;;;19.33;;
17983;SDS011;9117;52.420;20.728;2023-01-09T10:15:19;37.13;;;19.33;;
17983;SDS011;9117;52.420;20.728;2023-01-09T10:18:03;39.40;;;19.67;;
17983;SDS011;9117;52.420;20.728;2023-01-09T10:20:51;38.00;;;18.77;;
17983;SDS011;9117;52.420;20.728;2023-01-09T10:26:23;38.27;;;18.13;;
17983;SDS011;9117;52.420;20.728;2023-01-09T10:29:14;35.73;;;17.70;;
17983;SDS011;9117;52.420;20.728;2023-01-09T10:32:00;42.10;;;19.07;;
17983;SDS011;9117;52.420;20.728;2023-01-09T10:34:41;37.50;;;18.27;;
17983;SDS011;9117;52.420;20.728;2023-01-09T10:37:18;37.10;;;17.43;;
17983;SDS011;9117;52.420;20.728;2023-01-09T10:39:51;35.90;;;17.23;;
17983;SDS011;9117;52.420;20.728;2023-01-09T10:42:27;42.37;;;19.10;;
17983;SDS011;9117;52.420;20.728;2023-01-09T10:45:02;40.60;;;19.27;;
17983;SDS011;9117;52.420;20.728;2023-01-09T10:47:39;35.13;;;17.70;;
17983;SDS011;9117;52.420;20.728;2023-01-09T10:50:17;39.43;;;18.23;;
17983;SDS011;9117;52.420;20.728;2023-01-09T10:52:54;38.23;;;18.57;;
17983;SDS011;9117;52.420;20.728;2023-01-09T10:55:44;41.20;;;19.20;;
17983;SDS011;9117;52.420;20.728;2023-01-09T10:58:16;40.10;;;18.33;;
17983;SDS011;9117;52.420;20.728;2023-01-09T11:00:45;39.23;;;19.40;;
17983;SDS011;9117;52.420;20.728;2023-01-09T11:03:16;45.70;;;20.10;;
17983;SDS011;9117;52.420;20.728;2023-01-09T11:05:51;42.20;;;18.67;;
17983;SDS011;9117;52.420;20.728;2023-01-09T11:08:21;47.10;;;18.97;;
17983;SDS011;9117;52.420;20.728;2023-01-09T11:10:55;36.37;;;18.73;;
17983;SDS011;9117;52.420;20.728;2023-01-09T11:13:26;39.30;;;17.93;;
17983;SDS011;9117;52.420;20.728;2023-01-09T11:16:00;44.27;;;19.67;;
17983;SDS011;9117;52.420;20.728;2023-01-09T11:18:36;42.20;;;19.07;;
17983;SDS011;9117;52.420;20.728;2023-01-09T11:21:13;38.73;;;18.10;;
17983;SDS011;9117;52.420;20.728;2023-01-09T11:23:55;35.93;;;18.90;;
17983;SDS011;9117;52.420;20.728;2023-01-09T11:26:24;37.83;;;19.37;;
17983;SDS011;9117;52.420;20.728;2023-01-09T11:29:08;36.43;;;19.27;;
17983;SDS011;9117;52.420;20.728;2023-01-09T11:31:40;40.67;;;19.27;;
17983;SDS011;9117;52.420;20.728;2023-01-09T11:34:16;45.10;;;20.23;;
17983;SDS011;9117;52.420;20.728;2023-01-09T11:36:47;41.83;;;19.83;;
17983;SDS011;9117;52.420;20.728;2023-01-09T11:39:19;41.93;;;19.33;;
17983;SDS011;9117;52.420;20.728;2023-01-09T11:41:51;38.87;;;20.83;;
17983;SDS011;9117;52.420;20.728;2023-01-09T11:44:22;39.07;;;19.53;;
17983;SDS011;9117;52.420;20.728;2023-01-09T11:46:54;36.70;;;19.87;;
17983;SDS011;9117;52.420;20.728;2023-01-09T11:49:23;39.80;;;21.13;;
17983;SDS011;9117;52.420;20.728;2023-01-09T11:52:08;41.70;;;20.17;;
17983;SDS011;9117;52.420;20.728;2023-01-09T11:54:43;45.40;;;21.03;;
17983;SDS011;9117;52.420;20.728;2023-01-09T11:57:16;39.43;;;19.97;;
17983;SDS011;9117;52.420;20.728;2023-01-09T11:59:49;40.80;;;20.30;;
17983;SDS011;9117;52.420;20.728;2023-01-09T12:02:42;38.80;;;19.37;;
17983;SDS011;9117;52.420;20.728;2023-01-09T12:05:25;40.40;;;20.43;;
17983;SDS011;9117;52.420;20.728;2023-01-09T12:08:04;38.63;;;20.47;;
17983;SDS011;9117;52.420;20.728;2023-01-09T12:10:59;41.40;;;21.07;;
17983;SDS011;9117;52.420;20.728;2023-01-09T12:13:50;43.10;;;20.97;;
17983;SDS011;9117;52.420;20.728;2023-01-09T12:16:34;42.17;;;20.03;;
17983;SDS011;9117;52.420;20.728;2023-01-09T12:19:20;47.90;;;21.80;;
17983;SDS011;9117;52.420;20.728;2023-01-09T12:22:05;39.47;;;20.93;;
17983;SDS011;9117;52.420;20.728;2023-01-09T12:24:47;43.80;;;21.43;;
17983;SDS011;9117;52.420;20.728;2023-01-09T12:27:29;43.13;;;20.57;;
17983;SDS011;9117;52.420;20.728;2023-01-09T12:33:11;43.53;;;20.60;;
17983;SDS011;9117;52.420;20.728;2023-01-09T12:35:51;43.13;;;20.97;;
17983;SDS011;9117;52.420;20.728;2023-01-09T12:38:30;44.37;;;21.70;;
17983;SDS011;9117;52.420;20.728;2023-01-09T12:41:17;43.53;;;22.57;;
17983;SDS011;9117;52.420;20.728;2023-01-09T12:44:04;43.37;;;21.43;;
17983;SDS011;9117;52.420;20.728;2023-01-09T12:46:58;41.00;;;21.93;;
17983;SDS011;9117;52.420;20.728;2023-01-09T12:49:38;44.47;;;21.53;;
17983;SDS011;9117;52.420;20.728;2023-01-09T12:52:13;43.47;;;21.17;;
17983;SDS011;9117;52.420;20.728;2023-01-09T12:54:50;44.27;;;22.67;;
17983;SDS011;9117;52.420;20.728;2023-01-09T12:57:23;48.57;;;23.07;;
17983;SDS011;9117;52.420;20.728;2023-01-09T12:59:57;50.30;;;24.53;;
17983;SDS011;9117;52.420;20.728;2023-01-09T13:02:30;45.90;;;24.20;;
17983;SDS011;9117;52.420;20.728;2023-01-09T13:05:05;52.33;;;25.77;;
17983;SDS011;9117;52.420;20.728;2023-01-09T13:07:37;49.83;;;23.23;;
17983;SDS011;9117;52.420;20.728;2023-01-09T13:10:13;48.27;;;25.40;;
17983;SDS011;9117;52.420;20.728;2023-01-09T13:12:45;51.87;;;26.50;;
17983;SDS011;9117;52.420;20.728;2023-01-09T13:15:24;55.57;;;25.87;;
17983;SDS011;9117;52.420;20.728;2023-01-09T13:17:58;49.70;;;24.97;;
17983;SDS011;9117;52.420;20.728;2023-01-09T13:20:35;55.33;;;25.47;;
17983;SDS011;9117;52.420;20.728;2023-01-09T13:23:09;53.43;;;26.13;;
17983;SDS011;9117;52.420;20.728;2023-01-09T13:25:43;49.57;;;25.17;;
17983;SDS011;9117;52.420;20.728;2023-01-09T13:28:16;50.40;;;24.63;;
17983;SDS011;9117;52.420;20.728;2023-01-09T13:30:54;54.63;;;25.80;;
17983;SDS011;9117;52.420;20.728;2023-01-09T13:33:34;52.30;;;25.77;;
17983;SDS011;9117;52.420;20.728;2023-01-09T13:36:06;53.23;;;25.90;;
17983;SDS011;9117;52.420;20.728;2023-01-09T13:38:34;53.93;;;27.17;;
17983;SDS011;9117;52.420;20.728;2023-01-09T13:41:06;53.57;;;26.23;;
17983;SDS011;9117;52.420;20.728;2023-01-09T13:43:57;54.87;;;25.23;;
17983;SDS011;9117;52.420;20.728;2023-01-09T13:46:32;56.93;;;27.37;;
17983;SDS011;9117;52.420;20.728;2023-01-09T13:49:03;54.93;;;28.27;;
17983;SDS011;9117;52.420;20.728;2023-01-09T13:57:30;52.13;;;27.13;;
17983;SDS011;9117;52.420;20.728;2023-01-09T14:03:15;53.97;;;27.87;;
17983;SDS011;9117;52.420;20.728;2023-01-09T14:08:42;52.87;;;26.17;;
17983;SDS011;9117;52.420;20.728;2023-01-09T14:11:19;56.57;;;28.10;;
17983;SDS011;9117;52.420;20.728;2023-01-09T14:13:57;51.73;;;27.47;;
17983;SDS011;9117;52.420;20.728;2023-01-09T14:16:41;55.33;;;28.53;;
17983;SDS011;9117;52.420;20.728;2023-01-09T14:19:21;52.70;;;27.67;;
17983;SDS011;9117;52.420;20.728;2023-01-09T14:22:17;54.43;;;27.70;;
17983;SDS011;9117;52.420;20.728;2023-01-09T14:24:54;51.67;;;27.13;;
17983;SDS011;9117;52.420;20.728;2023-01-09T14:27:50;50.03;;;27.43;;
17983;SDS011;9117;52.420;20.728;2023-01-09T14:30:34;59.17;;;30.20;;
17983;SDS011;9117;52.420;20.728;2023-01-09T14:33:16;55.77;;;28.47;;
17983;SDS011;9117;52.420;20.728;2023-01-09T14:35:53;59.63;;;29.33;;
17983;SDS011;9117;52.420;20.728;2023-01-09T14:38:30;61.20;;;30.33;;
17983;SDS011;9117;52.420;20.728;2023-01-09T14:41:05;57.43;;;29.93;;
17983;SDS011;9117;52.420;20.728;2023-01-09T14:43:45;58.97;;;30.27;;
17983;SDS011;9117;52.420;20.728;2023-01-09T14:46:21;61.03;;;28.60;;
17983;SDS011;9117;52.420;20.728;2023-01-09T14:48:56;65.53;;;31.83;;
17983;SDS011;9117;52.420;20.728;2023-01-09T14:51:36;61.63;;;31.33;;
17983;SDS011;9117;52.420;20.728;2023-01-09T14:54:17;60.63;;;31.67;;
17983;SDS011;9117;52.420;20.728;2023-01-09T14:56:56;57.33;;;29.40;;
17983;SDS011;9117;52.420;20.728;2023-01-09T14:59:26;67.37;;;30.77;;
17983;SDS011;9117;52.420;20.728;2023-01-09T15:01:57;64.93;;;30.87;;
17983;SDS011;9117;52.420;20.728;2023-01-09T15:04:29;55.40;;;28.73;;
17983;SDS011;9117;52.420;20.728;2023-01-09T15:07:00;57.50;;;28.73;;
17983;SDS011;9117;52.420;20.728;2023-01-09T15:09:31;60.27;;;30.60;;
17983;SDS011;9117;52.420;20.728;2023-01-09T15:12:06;58.77;;;30.70;;
17983;SDS011;9117;52.420;20.728;2023-01-09T15:14:37;57.07;;;30.97;;